Shinkomaru No.8 — JK5142 — position and weather

sailwx.info

Track history (hours):
 
Tides and Currents Weather Stations Pressure Air Temp Water Temp Dewpoint Dewpoint Depression Visibility Wind Speed Wind Dir Waves Ship Positions

Shinkomaru No.8

Last reported at 2017-Dec-16 22:29 UTC. Time now 2017-Dec-16 22:44 UTC.
Position N 33°58' E 131°04'.

Length 61 m; draft 4.4 m.

Type: Tanker. MMSI: 431400035.

Date/timePositionNaut miles runAvg speedWind from/ knotsBaromVisibWave heightAir tempDewpointWater temp
2017-Dec-16 22:29N 33°58' E 131°04'0 0.0
2017-Dec-16 21:59N 33°58' E 131°04'0 0.1
2017-Dec-16 21:26N 33°58' E 131°04'0 0.0
2017-Dec-16 20:59N 33°58' E 131°04'0 0.0
2017-Dec-16 20:29N 33°58' E 131°04'0 0.0
2017-Dec-16 19:59N 33°58' E 131°04'0 0.0
2017-Dec-16 19:29N 33°58' E 131°04'0 0.1
2017-Dec-16 18:59N 33°58' E 131°04'0 0.1
2017-Dec-16 18:29N 33°58' E 131°04'0 0.0
2017-Dec-16 17:59N 33°58' E 131°04'0 0.1
2017-Dec-16 17:29N 33°58' E 131°04'0 0.1
2017-Dec-16 16:59N 33°58' E 131°04'0 0.0
2017-Dec-16 16:29N 33°58' E 131°04'0 0.0
2017-Dec-16 15:59N 33°58' E 131°04'0 0.0
2017-Dec-16 15:29N 33°58' E 131°04'0 0.0
2017-Dec-16 14:59N 33°58' E 131°04'0 0.0
2017-Dec-16 14:29N 33°58' E 131°04'0 0.1
2017-Dec-16 13:59N 33°58' E 131°04'0 0.0
2017-Dec-16 13:29N 33°58' E 131°04'0 0.1
2017-Dec-16 12:59N 33°58' E 131°04'0 0.1
2017-Dec-16 12:29N 33°58' E 131°04'0 0.1
2017-Dec-16 11:59N 33°58' E 131°04'0 0.0
2017-Dec-16 11:29N 33°58' E 131°04'0 0.1
2017-Dec-16 10:59N 33°58' E 131°04'0 0.0
2017-Dec-16 10:30N 33°58' E 131°04'3 6.1
2017-Dec-16 10:00N 33°56' E 131°07'612.8
2017-Dec-16 09:30N 33°52' E 131°13'612.7
2017-Dec-16 09:00N 33°49' E 131°20'612.6
2017-Dec-16 08:30N 33°46' E 131°27'612.2
2017-Dec-16 08:00N 33°44' E 131°33'612.4
2017-Dec-16 07:30N 33°41' E 131°40'612.5
2017-Dec-16 07:00N 33°36' E 131°45'612.3
2017-Dec-16 06:30N 33°30' E 131°46'712.6
2017-Dec-16 05:55N 33°23' E 131°44'512.5
2017-Dec-16 05:30N 33°18' E 131°42'2 0.4
2017-Dec-15 23:31N 33°16' E 131°41'0 0.3
2017-Dec-15 23:25N 33°16' E 131°41'3 6.2
2017-Dec-15 22:59N 33°19' E 131°41'4 5.8
2017-Dec-15 22:20N 33°23' E 131°41'0 0.0
2017-Dec-15 21:56N 33°23' E 131°41'0 0.0
2017-Dec-15 21:26N 33°23' E 131°41'0 0.0
2017-Dec-15 20:50N 33°23' E 131°41'7 9.7
2017-Dec-15 20:07N 33°27' E 131°48'210.9
2017-Dec-15 19:59N 33°28' E 131°49'3811.3
2017-Dec-15 16:37N 33°48' E 132°29'112.6
2017-Dec-15 16:30N 33°48' E 132°30'712.9
2017-Dec-15 16:00N 33°53' E 132°36'713.4
2017-Dec-15 15:30N 33°57' E 132°42'80 2.5
2017-Dec-14 08:04N 34°32' E 134°08'1413.3
2017-Dec-14 07:01N 34°39' E 134°23'612.9
2017-Dec-14 06:33N 34°41' E 134°30'412.8
2017-Dec-14 06:15N 34°43' E 134°34'312.2
2017-Dec-14 06:00N 34°45' E 134°37'3 0.5
2017-Dec-14 00:47N 34°47' E 134°38'3 6.4
2017-Dec-14 00:22N 34°45' E 134°37'411.9
2017-Dec-14 00:00N 34°42' E 134°33'2012.2
2017-Dec-13 22:20N 34°33' E 134°11'7710.6
2017-Dec-13 15:05N 34°01' E 132°46'111.3
2017-Dec-13 15:00N 34°00' E 132°45'510.6
2017-Dec-13 14:30N 33°56' E 132°41'510.6
2017-Dec-13 14:00N 33°53' E 132°36'1411.5
2017-Dec-13 12:48N 33°50' E 132°20'711.8
2017-Dec-13 12:13N 33°49' E 132°12'311.7
2017-Dec-13 11:58N 33°48' E 132°09'511.8
2017-Dec-13 11:31N 33°45' E 132°03'612.2
2017-Dec-13 10:59N 33°46' E 131°55'612.4
2017-Dec-13 10:30N 33°47' E 131°48'612.6
2017-Dec-13 10:00N 33°48' E 131°41'612.5
2017-Dec-13 09:30N 33°50' E 131°33'612.3
2017-Dec-13 09:00N 33°51' E 131°26'612.2
2017-Dec-13 08:31N 33°52' E 131°19'611.9
2017-Dec-13 08:00N 33°53' E 131°12'611.9
2017-Dec-13 07:30N 33°56' E 131°06'611.5
2017-Dec-13 07:01N 33°58' E 130°59'611.0
2017-Dec-13 06:31N 33°54' E 130°55'510.5
2017-Dec-13 06:01N 33°57' E 130°49'0 0.2
2017-Dec-13 05:29N 33°57' E 130°49'0 0.0
2017-Dec-13 04:59N 33°57' E 130°49'0 0.0
2017-Dec-13 04:29N 33°57' E 130°49'0 0.0
2017-Dec-13 03:59N 33°57' E 130°49'0 0.0
2017-Dec-13 03:29N 33°57' E 130°49'0 0.0
2017-Dec-13 02:59N 33°57' E 130°49'0 0.0
2017-Dec-13 02:29N 33°57' E 130°49'0 0.0
2017-Dec-13 02:00N 33°57' E 130°49'3 6.9
2017-Dec-13 01:30N 33°55' E 130°53'4 7.8
2017-Dec-13 01:01N 33°58' E 130°57'510.6
2017-Dec-13 00:30N 33°58' E 131°04'0 0.7
2017-Dec-12 23:58N 33°58' E 131°04'0 0.0
2017-Dec-12 23:28N 33°58' E 131°04'0 0.0
2017-Dec-12 22:58N 33°58' E 131°04'0 0.0
2017-Dec-12 22:28N 33°58' E 131°04'0 0.0
2017-Dec-12 21:58N 33°58' E 131°04'0 0.0
2017-Dec-12 21:28N 33°58' E 131°04'0 0.0
2017-Dec-12 20:58N 33°58' E 131°04'0 0.0
2017-Dec-12 20:28N 33°58' E 131°04'0 0.0
2017-Dec-12 19:58N 33°58' E 131°04'0 0.0
2017-Dec-12 19:28N 33°58' E 131°04'0 0.0
2017-Dec-12 18:58N 33°58' E 131°04'0 0.0
2017-Dec-12 18:28N 33°58' E 131°04'0 0.0
2017-Dec-12 17:58N 33°58' E 131°04'0 0.0
2017-Dec-12 17:28N 33°58' E 131°04'0 0.0
2017-Dec-12 16:58N 33°58' E 131°04'0 0.0
2017-Dec-12 16:28N 33°58' E 131°04'0 0.0
2017-Dec-12 15:58N 33°58' E 131°04'0 0.0
2017-Dec-12 15:28N 33°58' E 131°04'0 0.0
2017-Dec-12 14:58N 33°58' E 131°04'0 0.0
2017-Dec-12 14:28N 33°58' E 131°04'0 0.0
2017-Dec-12 13:58N 33°58' E 131°04'0 0.0
2017-Dec-12 13:28N 33°58' E 131°04'0 0.0
2017-Dec-12 12:58N 33°58' E 131°04'4 9.0
2017-Dec-12 12:30N 33°55' E 131°08'612.0
2017-Dec-12 12:00N 33°52' E 131°14'612.4
2017-Dec-12 11:30N 33°49' E 131°21'612.2
2017-Dec-12 11:00N 33°46' E 131°27'611.9
2017-Dec-12 10:30N 33°44' E 131°34'511.0
2017-Dec-12 10:00N 33°41' E 131°39'611.3
2017-Dec-12 09:30N 33°37' E 131°44'611.2
2017-Dec-12 09:00N 33°31' E 131°46'612.4
2017-Dec-12 08:30N 33°25' E 131°45'712.6
2017-Dec-12 07:59N 33°19' E 131°42'2 0.5
2017-Dec-12 04:15N 33°18' E 131°40'1 1.9
2017-Dec-12 03:53N 33°18' E 131°39'1 0.2
2017-Dec-11 22:47N 33°19' E 131°39'412.2
2017-Dec-11 22:29N 33°22' E 131°41'1 1.0
2017-Dec-11 21:47N 33°23' E 131°41'0 0.0
2017-Dec-11 21:23N 33°23' E 131°41'0 0.0
2017-Dec-11 20:59N 33°23' E 131°41'0 0.0
2017-Dec-11 20:29N 33°23' E 131°41'0 0.0
2017-Dec-11 19:11N 33°23' E 131°41'0 0.0
2017-Dec-11 18:53N 33°23' E 131°41'0 0.0
2017-Dec-11 18:23N 33°23' E 131°41'0 0.0
2017-Dec-11 17:47N 33°23' E 131°41'0 0.0
2017-Dec-11 17:23N 33°23' E 131°41'0 0.0
2017-Dec-11 16:59N 33°23' E 131°41'0 0.0
2017-Dec-11 14:46N 33°23' E 131°41'0 0.0
2017-Dec-11 14:22N 33°23' E 131°41'0 0.0
2017-Dec-11 13:58N 33°23' E 131°41'0 0.0
2017-Dec-11 13:28N 33°23' E 131°41'0 0.5
2017-Dec-11 13:00N 33°23' E 131°41'711.6
2017-Dec-11 12:26N 33°28' E 131°46'612.7
2017-Dec-11 12:00N 33°34' E 131°47'613.1
2017-Dec-11 11:30N 33°39' E 131°42'713.7
2017-Dec-11 11:00N 33°43' E 131°35'713.4
2017-Dec-11 10:30N 33°45' E 131°28'612.9
2017-Dec-11 10:00N 33°48' E 131°21'612.8
2017-Dec-11 09:30N 33°51' E 131°13'612.8
2017-Dec-11 09:00N 33°54' E 131°07'612.3
2017-Dec-11 08:30N 33°58' E 131°01'5 9.9
2017-Dec-11 08:00N 33°56' E 130°56'4 8.2
2017-Dec-11 07:30N 33°55' E 130°51'0 0.5
2017-Dec-11 07:00N 33°55' E 130°51'0 0.0
2017-Dec-11 06:30N 33°55' E 130°51'0 0.0
2017-Dec-11 06:00N 33°55' E 130°51'0 0.0
2017-Dec-11 05:30N 33°55' E 130°51'0 0.0
2017-Dec-11 05:00N 33°55' E 130°51'0 0.0
2017-Dec-11 04:30N 33°55' E 130°51'0 0.0
2017-Dec-11 04:00N 33°55' E 130°51'0 0.0
2017-Dec-11 03:30N 33°55' E 130°51'0 0.0
2017-Dec-11 03:00N 33°55' E 130°51'1 1.3
2017-Dec-11 02:30N 33°55' E 130°52'4 8.1
2017-Dec-11 02:00N 33°56' E 130°56'4 8.7
2017-Dec-11 01:30N 33°59' E 131°01'611.8
2017-Dec-11 01:00N 33°56' E 131°07'611.7
2017-Dec-11 00:30N 33°53' E 131°13'611.5
2017-Dec-11 00:00N 33°51' E 131°20'611.3
2017-Dec-10 23:30N 33°51' E 131°26'611.3
2017-Dec-10 23:00N 33°49' E 131°33'611.4
2017-Dec-10 22:30N 33°48' E 131°40'710.7
2017-Dec-10 21:52N 33°47' E 131°48'1110.1
2017-Dec-10 20:48N 33°46' E 132°01'311.4
2017-Dec-10 20:30N 33°46' E 132°05'812.2
2017-Dec-10 19:50N 33°50' E 132°14'412.3
2017-Dec-10 19:30N 33°50' E 132°19'812.2
2017-Dec-10 18:50N 33°52' E 132°28'412.0
2017-Dec-10 18:30N 33°53' E 132°33'611.8
2017-Dec-10 18:00N 33°56' E 132°39'611.2
2017-Dec-10 17:30N 33°60' E 132°44'7710.9
2017-Dec-10 10:27N 34°32' E 134°09'1212.0
2017-Dec-10 09:27N 34°38' E 134°21'612.2
2017-Dec-10 08:56N 34°41' E 134°28'512.4
2017-Dec-10 08:30N 34°43' E 134°34'510.7
2017-Dec-10 08:00N 34°47' E 134°38'0 0.0
2017-Dec-09 22:58N 34°47' E 134°38'3 3.1
2017-Dec-09 22:07N 34°44' E 134°38'1 5.1
2017-Dec-09 21:58N 34°44' E 134°38'0 0.1
2017-Dec-09 21:21N 34°44' E 134°38'0 0.0
2017-Dec-09 20:33N 34°44' E 134°38'0 0.0
2017-Dec-09 20:27N 34°44' E 134°38'0 0.0
2017-Dec-09 19:57N 34°44' E 134°38'0 0.0
2017-Dec-09 18:46N 34°44' E 134°38'0 0.0
2017-Dec-09 15:50N 34°44' E 134°38'0 0.0
2017-Dec-09 15:20N 34°44' E 134°38'0 0.0
2017-Dec-09 14:50N 34°44' E 134°38'0 0.0
2017-Dec-09 13:42N 34°44' E 134°38'0 0.0
2017-Dec-09 13:17N 34°44' E 134°38'0 0.0
2017-Dec-09 12:59N 34°44' E 134°38'0 0.0
2017-Dec-09 12:17N 34°44' E 134°38'0 0.2
2017-Dec-09 12:01N 34°44' E 134°38'510.1
2017-Dec-09 11:30N 34°42' E 134°43'510.9
2017-Dec-09 11:00N 34°39' E 134°49'5 9.9
2017-Dec-09 10:30N 34°37' E 134°55'510.0
2017-Dec-09 10:00N 34°38' E 135°01'4 8.9
2017-Dec-09 09:31N 34°35' E 135°05'611.0
2017-Dec-09 09:00N 34°29' E 135°05'611.2
2017-Dec-09 08:31N 34°24' E 135°04'510.1
2017-Dec-09 08:00N 34°19' E 135°04'4 8.6
2017-Dec-09 07:30N 34°15' E 135°05'2 3.2
2017-Dec-09 06:57N 34°14' E 135°07'0 0.0
2017-Dec-09 06:30N 34°14' E 135°07'0 0.0
2017-Dec-09 06:00N 34°14' E 135°07'0 0.0
2017-Dec-09 05:30N 34°14' E 135°07'0 0.0
2017-Dec-09 04:58N 34°14' E 135°07'0 0.0
2017-Dec-09 04:28N 34°14' E 135°07'0 0.0
2017-Dec-09 03:58N 34°14' E 135°07'0 0.0
2017-Dec-09 03:27N 34°14' E 135°07'0 0.0
2017-Dec-09 02:57N 34°14' E 135°07'0 0.0
2017-Dec-09 02:27N 34°14' E 135°07'0 0.0
2017-Dec-09 01:57N 34°14' E 135°07'0 0.0
2017-Dec-09 01:27N 34°14' E 135°07'0 0.0
2017-Dec-09 00:57N 34°14' E 135°07'0 0.0
2017-Dec-09 00:27N 34°14' E 135°07'0 0.0
2017-Dec-08 23:57N 34°14' E 135°07'0 0.0
2017-Dec-08 23:27N 34°14' E 135°07'0 0.0
2017-Dec-08 22:57N 34°14' E 135°07'0 0.0
2017-Dec-08 22:27N 34°14' E 135°07'0 0.1
2017-Dec-08 22:00N 34°14' E 135°07'1 2.4
2017-Dec-08 21:29N 34°15' E 135°06'0 0.0
2017-Dec-08 20:59N 34°15' E 135°06'0 0.0
2017-Dec-08 20:29N 34°15' E 135°06'0 0.0
2017-Dec-08 20:00N 34°15' E 135°06'0 0.0
2017-Dec-08 19:30N 34°15' E 135°06'0 0.0
2017-Dec-08 19:00N 34°15' E 135°06'0 0.0
2017-Dec-08 18:30N 34°15' E 135°06'0 0.0
2017-Dec-08 17:59N 34°15' E 135°06'0 0.0
2017-Dec-08 17:29N 34°15' E 135°06'0 0.0
2017-Dec-08 16:55N 34°15' E 135°06'0 0.0
2017-Dec-08 16:30N 34°15' E 135°06'0 0.0
2017-Dec-08 16:00N 34°15' E 135°06'0 0.0
2017-Dec-08 15:29N 34°15' E 135°06'0 0.0
2017-Dec-08 14:59N 34°15' E 135°06'0 0.0
2017-Dec-08 14:29N 34°15' E 135°06'0 0.1
2017-Dec-08 14:00N 34°15' E 135°06'4 8.2
2017-Dec-08 13:31N 34°14' E 135°01'612.2
2017-Dec-08 13:00N 34°12' E 134°54'612.5
2017-Dec-08 12:31N 34°11' E 134°47'611.0
2017-Dec-08 12:00N 34°13' E 134°41'612.5
2017-Dec-08 11:30N 34°17' E 134°34'813.2
2017-Dec-08 10:53N 34°20' E 134°25'1213.3
2017-Dec-08 09:58N 34°25' E 134°12'74 3.0
2017-Dec-07 08:51N 34°01' E 132°46'411.3
2017-Dec-07 08:30N 33°58' E 132°43'4711.8
2017-Dec-07 04:30N 33°28' E 131°59'612.6
2017-Dec-07 04:00N 33°24' E 131°53'712.9
2017-Dec-07 03:29N 33°21' E 131°46'613.0
2017-Dec-07 02:59N 33°18' E 131°39'  
Track history (hours):
 
Tides and Currents Weather Stations Pressure Air Temp Water Temp Dewpoint Dewpoint Depression Visibility Wind Speed Wind Dir Waves Ship Positions

Shinkomaru No.8

Last reported at 2017-Dec-16 22:29 UTC. Time now 2017-Dec-16 22:44 UTC.
Position N 33°58' E 131°04'.

Length 61 m; draft 4.4 m.

Type: Tanker. MMSI: 431400035.

Date/timePositionNaut miles runAvg speedWind from/ knotsBaromVisibWave heightAir tempDewpointWater temp
2017-Dec-16 22:29N 33°58' E 131°04'0 0.0
2017-Dec-16 21:59N 33°58' E 131°04'0 0.1
2017-Dec-16 21:26N 33°58' E 131°04'0 0.0
2017-Dec-16 20:59N 33°58' E 131°04'0 0.0
2017-Dec-16 20:29N 33°58' E 131°04'0 0.0
2017-Dec-16 19:59N 33°58' E 131°04'0 0.0
2017-Dec-16 19:29N 33°58' E 131°04'0 0.1
2017-Dec-16 18:59N 33°58' E 131°04'0 0.1
2017-Dec-16 18:29N 33°58' E 131°04'0 0.0
2017-Dec-16 17:59N 33°58' E 131°04'0 0.1
2017-Dec-16 17:29N 33°58' E 131°04'0 0.1
2017-Dec-16 16:59N 33°58' E 131°04'0 0.0
2017-Dec-16 16:29N 33°58' E 131°04'0 0.0
2017-Dec-16 15:59N 33°58' E 131°04'0 0.0
2017-Dec-16 15:29N 33°58' E 131°04'0 0.0
2017-Dec-16 14:59N 33°58' E 131°04'0 0.0
2017-Dec-16 14:29N 33°58' E 131°04'0 0.1
2017-Dec-16 13:59N 33°58' E 131°04'0 0.0
2017-Dec-16 13:29N 33°58' E 131°04'0 0.1
2017-Dec-16 12:59N 33°58' E 131°04'0 0.1
2017-Dec-16 12:29N 33°58' E 131°04'0 0.1
2017-Dec-16 11:59N 33°58' E 131°04'0 0.0
2017-Dec-16 11:29N 33°58' E 131°04'0 0.1
2017-Dec-16 10:59N 33°58' E 131°04'0 0.0
2017-Dec-16 10:30N 33°58' E 131°04'3 6.1
2017-Dec-16 10:00N 33°56' E 131°07'612.8
2017-Dec-16 09:30N 33°52' E 131°13'612.7
2017-Dec-16 09:00N 33°49' E 131°20'612.6
2017-Dec-16 08:30N 33°46' E 131°27'612.2
2017-Dec-16 08:00N 33°44' E 131°33'612.4
2017-Dec-16 07:30N 33°41' E 131°40'612.5
2017-Dec-16 07:00N 33°36' E 131°45'612.3
2017-Dec-16 06:30N 33°30' E 131°46'712.6
2017-Dec-16 05:55N 33°23' E 131°44'512.5
2017-Dec-16 05:30N 33°18' E 131°42'2 0.4
2017-Dec-15 23:31N 33°16' E 131°41'0 0.3
2017-Dec-15 23:25N 33°16' E 131°41'3 6.2
2017-Dec-15 22:59N 33°19' E 131°41'4 5.8
2017-Dec-15 22:20N 33°23' E 131°41'0 0.0
2017-Dec-15 21:56N 33°23' E 131°41'0 0.0
2017-Dec-15 21:26N 33°23' E 131°41'0 0.0
2017-Dec-15 20:50N 33°23' E 131°41'7 9.7
2017-Dec-15 20:07N 33°27' E 131°48'210.9
2017-Dec-15 19:59N 33°28' E 131°49'3811.3
2017-Dec-15 16:37N 33°48' E 132°29'112.6
2017-Dec-15 16:30N 33°48' E 132°30'712.9
2017-Dec-15 16:00N 33°53' E 132°36'713.4
2017-Dec-15 15:30N 33°57' E 132°42'80 2.5
2017-Dec-14 08:04N 34°32' E 134°08'1413.3
2017-Dec-14 07:01N 34°39' E 134°23'612.9
2017-Dec-14 06:33N 34°41' E 134°30'412.8
2017-Dec-14 06:15N 34°43' E 134°34'312.2
2017-Dec-14 06:00N 34°45' E 134°37'3 0.5
2017-Dec-14 00:47N 34°47' E 134°38'3 6.4
2017-Dec-14 00:22N 34°45' E 134°37'411.9
2017-Dec-14 00:00N 34°42' E 134°33'2012.2
2017-Dec-13 22:20N 34°33' E 134°11'7710.6
2017-Dec-13 15:05N 34°01' E 132°46'111.3
2017-Dec-13 15:00N 34°00' E 132°45'510.6
2017-Dec-13 14:30N 33°56' E 132°41'510.6
2017-Dec-13 14:00N 33°53' E 132°36'1411.5
2017-Dec-13 12:48N 33°50' E 132°20'711.8
2017-Dec-13 12:13N 33°49' E 132°12'311.7
2017-Dec-13 11:58N 33°48' E 132°09'511.8
2017-Dec-13 11:31N 33°45' E 132°03'612.2
2017-Dec-13 10:59N 33°46' E 131°55'612.4
2017-Dec-13 10:30N 33°47' E 131°48'612.6
2017-Dec-13 10:00N 33°48' E 131°41'612.5
2017-Dec-13 09:30N 33°50' E 131°33'612.3
2017-Dec-13 09:00N 33°51' E 131°26'612.2
2017-Dec-13 08:31N 33°52' E 131°19'611.9
2017-Dec-13 08:00N 33°53' E 131°12'611.9
2017-Dec-13 07:30N 33°56' E 131°06'611.5
2017-Dec-13 07:01N 33°58' E 130°59'611.0
2017-Dec-13 06:31N 33°54' E 130°55'510.5
2017-Dec-13 06:01N 33°57' E 130°49'0 0.2
2017-Dec-13 05:29N 33°57' E 130°49'0 0.0
2017-Dec-13 04:59N 33°57' E 130°49'0 0.0
2017-Dec-13 04:29N 33°57' E 130°49'0 0.0
2017-Dec-13 03:59N 33°57' E 130°49'0 0.0
2017-Dec-13 03:29N 33°57' E 130°49'0 0.0
2017-Dec-13 02:59N 33°57' E 130°49'0 0.0
2017-Dec-13 02:29N 33°57' E 130°49'0 0.0
2017-Dec-13 02:00N 33°57' E 130°49'3 6.9
2017-Dec-13 01:30N 33°55' E 130°53'4 7.8
2017-Dec-13 01:01N 33°58' E 130°57'510.6
2017-Dec-13 00:30N 33°58' E 131°04'0 0.7
2017-Dec-12 23:58N 33°58' E 131°04'0 0.0
2017-Dec-12 23:28N 33°58' E 131°04'0 0.0
2017-Dec-12 22:58N 33°58' E 131°04'0 0.0
2017-Dec-12 22:28N 33°58' E 131°04'0 0.0
2017-Dec-12 21:58N 33°58' E 131°04'0 0.0
2017-Dec-12 21:28N 33°58' E 131°04'0 0.0
2017-Dec-12 20:58N 33°58' E 131°04'0 0.0
2017-Dec-12 20:28N 33°58' E 131°04'0 0.0
2017-Dec-12 19:58N 33°58' E 131°04'0 0.0
2017-Dec-12 19:28N 33°58' E 131°04'0 0.0
2017-Dec-12 18:58N 33°58' E 131°04'0 0.0
2017-Dec-12 18:28N 33°58' E 131°04'0 0.0
2017-Dec-12 17:58N 33°58' E 131°04'0 0.0
2017-Dec-12 17:28N 33°58' E 131°04'0 0.0
2017-Dec-12 16:58N 33°58' E 131°04'0 0.0
2017-Dec-12 16:28N 33°58' E 131°04'0 0.0
2017-Dec-12 15:58N 33°58' E 131°04'0 0.0
2017-Dec-12 15:28N 33°58' E 131°04'0 0.0
2017-Dec-12 14:58N 33°58' E 131°04'0 0.0
2017-Dec-12 14:28N 33°58' E 131°04'0 0.0
2017-Dec-12 13:58N 33°58' E 131°04'0 0.0
2017-Dec-12 13:28N 33°58' E 131°04'0 0.0
2017-Dec-12 12:58N 33°58' E 131°04'4 9.0
2017-Dec-12 12:30N 33°55' E 131°08'612.0
2017-Dec-12 12:00N 33°52' E 131°14'612.4
2017-Dec-12 11:30N 33°49' E 131°21'612.2
2017-Dec-12 11:00N 33°46' E 131°27'611.9
2017-Dec-12 10:30N 33°44' E 131°34'511.0
2017-Dec-12 10:00N 33°41' E 131°39'611.3
2017-Dec-12 09:30N 33°37' E 131°44'611.2
2017-Dec-12 09:00N 33°31' E 131°46'612.4
2017-Dec-12 08:30N 33°25' E 131°45'712.6
2017-Dec-12 07:59N 33°19' E 131°42'2 0.5
2017-Dec-12 04:15N 33°18' E 131°40'1 1.9
2017-Dec-12 03:53N 33°18' E 131°39'1 0.2
2017-Dec-11 22:47N 33°19' E 131°39'412.2
2017-Dec-11 22:29N 33°22' E 131°41'1 1.0
2017-Dec-11 21:47N 33°23' E 131°41'0 0.0
2017-Dec-11 21:23N 33°23' E 131°41'0 0.0
2017-Dec-11 20:59N 33°23' E 131°41'0 0.0
2017-Dec-11 20:29N 33°23' E 131°41'0 0.0
2017-Dec-11 19:11N 33°23' E 131°41'0 0.0
2017-Dec-11 18:53N 33°23' E 131°41'0 0.0
2017-Dec-11 18:23N 33°23' E 131°41'0 0.0
2017-Dec-11 17:47N 33°23' E 131°41'0 0.0
2017-Dec-11 17:23N 33°23' E 131°41'0 0.0
2017-Dec-11 16:59N 33°23' E 131°41'0 0.0
2017-Dec-11 14:46N 33°23' E 131°41'0 0.0
2017-Dec-11 14:22N 33°23' E 131°41'0 0.0
2017-Dec-11 13:58N 33°23' E 131°41'0 0.0
2017-Dec-11 13:28N 33°23' E 131°41'0 0.5
2017-Dec-11 13:00N 33°23' E 131°41'711.6
2017-Dec-11 12:26N 33°28' E 131°46'612.7
2017-Dec-11 12:00N 33°34' E 131°47'613.1
2017-Dec-11 11:30N 33°39' E 131°42'713.7
2017-Dec-11 11:00N 33°43' E 131°35'713.4
2017-Dec-11 10:30N 33°45' E 131°28'612.9
2017-Dec-11 10:00N 33°48' E 131°21'612.8
2017-Dec-11 09:30N 33°51' E 131°13'612.8
2017-Dec-11 09:00N 33°54' E 131°07'612.3
2017-Dec-11 08:30N 33°58' E 131°01'5 9.9
2017-Dec-11 08:00N 33°56' E 130°56'4 8.2
2017-Dec-11 07:30N 33°55' E 130°51'0 0.5
2017-Dec-11 07:00N 33°55' E 130°51'0 0.0
2017-Dec-11 06:30N 33°55' E 130°51'0 0.0
2017-Dec-11 06:00N 33°55' E 130°51'0 0.0
2017-Dec-11 05:30N 33°55' E 130°51'0 0.0
2017-Dec-11 05:00N 33°55' E 130°51'0 0.0
2017-Dec-11 04:30N 33°55' E 130°51'0 0.0
2017-Dec-11 04:00N 33°55' E 130°51'0 0.0
2017-Dec-11 03:30N 33°55' E 130°51'0 0.0
2017-Dec-11 03:00N 33°55' E 130°51'1 1.3
2017-Dec-11 02:30N 33°55' E 130°52'4 8.1
2017-Dec-11 02:00N 33°56' E 130°56'4 8.7
2017-Dec-11 01:30N 33°59' E 131°01'611.8
2017-Dec-11 01:00N 33°56' E 131°07'611.7
2017-Dec-11 00:30N 33°53' E 131°13'611.5
2017-Dec-11 00:00N 33°51' E 131°20'611.3
2017-Dec-10 23:30N 33°51' E 131°26'611.3
2017-Dec-10 23:00N 33°49' E 131°33'611.4
2017-Dec-10 22:30N 33°48' E 131°40'710.7
2017-Dec-10 21:52N 33°47' E 131°48'1110.1
2017-Dec-10 20:48N 33°46' E 132°01'311.4
2017-Dec-10 20:30N 33°46' E 132°05'812.2
2017-Dec-10 19:50N 33°50' E 132°14'412.3
2017-Dec-10 19:30N 33°50' E 132°19'812.2
2017-Dec-10 18:50N 33°52' E 132°28'412.0
2017-Dec-10 18:30N 33°53' E 132°33'611.8
2017-Dec-10 18:00N 33°56' E 132°39'611.2
2017-Dec-10 17:30N 33°60' E 132°44'7710.9
2017-Dec-10 10:27N 34°32' E 134°09'1212.0
2017-Dec-10 09:27N 34°38' E 134°21'612.2
2017-Dec-10 08:56N 34°41' E 134°28'512.4
2017-Dec-10 08:30N 34°43' E 134°34'510.7
2017-Dec-10 08:00N 34°47' E 134°38'0 0.0
2017-Dec-09 22:58N 34°47' E 134°38'3 3.1
2017-Dec-09 22:07N 34°44' E 134°38'1 5.1
2017-Dec-09 21:58N 34°44' E 134°38'0 0.1
2017-Dec-09 21:21N 34°44' E 134°38'0 0.0
2017-Dec-09 20:33N 34°44' E 134°38'0 0.0
2017-Dec-09 20:27N 34°44' E 134°38'0 0.0
2017-Dec-09 19:57N 34°44' E 134°38'0 0.0
2017-Dec-09 18:46N 34°44' E 134°38'0 0.0
2017-Dec-09 15:50N 34°44' E 134°38'0 0.0
2017-Dec-09 15:20N 34°44' E 134°38'0 0.0
2017-Dec-09 14:50N 34°44' E 134°38'0 0.0
2017-Dec-09 13:42N 34°44' E 134°38'0 0.0
2017-Dec-09 13:17N 34°44' E 134°38'0 0.0
2017-Dec-09 12:59N 34°44' E 134°38'0 0.0
2017-Dec-09 12:17N 34°44' E 134°38'0 0.2
2017-Dec-09 12:01N 34°44' E 134°38'510.1
2017-Dec-09 11:30N 34°42' E 134°43'510.9
2017-Dec-09 11:00N 34°39' E 134°49'5 9.9
2017-Dec-09 10:30N 34°37' E 134°55'510.0
2017-Dec-09 10:00N 34°38' E 135°01'4 8.9
2017-Dec-09 09:31N 34°35' E 135°05'611.0
2017-Dec-09 09:00N 34°29' E 135°05'611.2
2017-Dec-09 08:31N 34°24' E 135°04'510.1
2017-Dec-09 08:00N 34°19' E 135°04'4 8.6
2017-Dec-09 07:30N 34°15' E 135°05'2 3.2
2017-Dec-09 06:57N 34°14' E 135°07'0 0.0
2017-Dec-09 06:30N 34°14' E 135°07'0 0.0
2017-Dec-09 06:00N 34°14' E 135°07'0 0.0
2017-Dec-09 05:30N 34°14' E 135°07'0 0.0
2017-Dec-09 04:58N 34°14' E 135°07'0 0.0
2017-Dec-09 04:28N 34°14' E 135°07'0 0.0
2017-Dec-09 03:58N 34°14' E 135°07'0 0.0
2017-Dec-09 03:27N 34°14' E 135°07'0 0.0
2017-Dec-09 02:57N 34°14' E 135°07'0 0.0
2017-Dec-09 02:27N 34°14' E 135°07'0 0.0
2017-Dec-09 01:57N 34°14' E 135°07'0 0.0
2017-Dec-09 01:27N 34°14' E 135°07'0 0.0
2017-Dec-09 00:57N 34°14' E 135°07'0 0.0
2017-Dec-09 00:27N 34°14' E 135°07'0 0.0
2017-Dec-08 23:57N 34°14' E 135°07'0 0.0
2017-Dec-08 23:27N 34°14' E 135°07'0 0.0
2017-Dec-08 22:57N 34°14' E 135°07'0 0.0
2017-Dec-08 22:27N 34°14' E 135°07'0 0.1
2017-Dec-08 22:00N 34°14' E 135°07'1 2.4
2017-Dec-08 21:29N 34°15' E 135°06'0 0.0
2017-Dec-08 20:59N 34°15' E 135°06'0 0.0
2017-Dec-08 20:29N 34°15' E 135°06'0 0.0
2017-Dec-08 20:00N 34°15' E 135°06'0 0.0
2017-Dec-08 19:30N 34°15' E 135°06'0 0.0
2017-Dec-08 19:00N 34°15' E 135°06'0 0.0
2017-Dec-08 18:30N 34°15' E 135°06'0 0.0
2017-Dec-08 17:59N 34°15' E 135°06'0 0.0
2017-Dec-08 17:29N 34°15' E 135°06'0 0.0
2017-Dec-08 16:55N 34°15' E 135°06'0 0.0
2017-Dec-08 16:30N 34°15' E 135°06'0 0.0
2017-Dec-08 16:00N 34°15' E 135°06'0 0.0
2017-Dec-08 15:29N 34°15' E 135°06'0 0.0
2017-Dec-08 14:59N 34°15' E 135°06'0 0.0
2017-Dec-08 14:29N 34°15' E 135°06'0 0.1
2017-Dec-08 14:00N 34°15' E 135°06'4 8.2
2017-Dec-08 13:31N 34°14' E 135°01'612.2
2017-Dec-08 13:00N 34°12' E 134°54'612.5
2017-Dec-08 12:31N 34°11' E 134°47'611.0
2017-Dec-08 12:00N 34°13' E 134°41'612.5
2017-Dec-08 11:30N 34°17' E 134°34'813.2
2017-Dec-08 10:53N 34°20' E 134°25'1213.3
2017-Dec-08 09:58N 34°25' E 134°12'74 3.0
2017-Dec-07 08:51N 34°01' E 132°46'411.3
2017-Dec-07 08:30N 33°58' E 132°43'4711.8
2017-Dec-07 04:30N 33°28' E 131°59'612.6
2017-Dec-07 04:00N 33°24' E 131°53'712.9
2017-Dec-07 03:29N 33°21' E 131°46'613.0
2017-Dec-07 02:59N 33°18' E 131°39'  

Dump ship's entire track history